sensor_id;sensor_type;location;lat;lon;timestamp;pressure;altitude;pressure_sealevel;temperature;humidity
63190;BME280;49286;44.460;26.114;2023-05-07T00:01:07;100942.69;;;12.31;100.00
63190;BME280;49286;44.460;26.114;2023-05-07T00:03:32;100818.06;;;11.60;100.00
63190;BME280;49286;44.460;26.114;2023-05-07T00:05:58;100832.09;;;11.62;100.00
63190;BME280;49286;44.460;26.114;2023-05-07T00:08:24;100800.44;;;11.30;100.00
63190;BME280;49286;44.460;26.114;2023-05-07T00:10:49;100954.94;;;12.04;100.00
63190;BME280;49286;44.460;26.114;2023-05-07T00:13:15;100941.78;;;11.97;100.00
63190;BME280;49286;44.460;26.114;2023-05-07T00:15:40;100947.03;;;12.01;100.00
63190;BME280;49286;44.460;26.114;2023-05-07T00:18:05;100935.53;;;11.84;100.00
63190;BME280;49286;44.460;26.114;2023-05-07T00:20:31;100918.91;;;11.80;100.00
63190;BME280;49286;44.460;26.114;2023-05-07T00:22:56;100888.16;;;11.59;100.00
63190;BME280;49286;44.460;26.114;2023-05-07T00:25:22;100802.09;;;11.05;100.00
63190;BME280;49286;44.460;26.114;2023-05-07T00:27:47;100805.72;;;11.27;100.00
63190;BME280;49286;44.460;26.114;2023-05-07T00:30:13;100949.72;;;12.35;100.00
63190;BME280;49286;44.460;26.114;2023-05-07T00:32:39;100901.44;;;12.10;100.00
63190;BME280;49286;44.460;26.114;2023-05-07T00:35:05;100838.25;;;11.69;100.00
63190;BME280;49286;44.460;26.114;2023-05-07T00:37:31;100892.69;;;12.02;100.00
63190;BME280;49286;44.460;26.114;2023-05-07T00:39:56;100958.47;;;12.16;100.00
63190;BME280;49286;44.460;26.114;2023-05-07T00:42:22;100924.09;;;11.73;100.00
63190;BME280;49286;44.460;26.114;2023-05-07T00:44:48;100834.59;;;11.33;100.00
63190;BME280;49286;44.460;26.114;2023-05-07T00:47:13;100771.28;;;10.62;100.00
63190;BME280;49286;44.460;26.114;2023-05-07T00:49:43;100958.31;;;11.74;100.00
63190;BME280;49286;44.460;26.114;2023-05-07T00:52:13;100817.81;;;10.89;100.00
63190;BME280;49286;44.460;26.114;2023-05-07T00:54:40;100814.38;;;11.12;100.00
63190;BME280;49286;44.460;26.114;2023-05-07T00:57:05;100862.69;;;11.49;100.00
63190;BME280;49286;44.460;26.114;2023-05-07T00:59:32;100933.69;;;11.55;100.00
63190;BME280;49286;44.460;26.114;2023-05-07T01:01:58;100816.69;;;10.50;100.00
63190;BME280;49286;44.460;26.114;2023-05-07T01:04:23;100822.84;;;10.55;100.00
63190;BME280;49286;44.460;26.114;2023-05-07T01:06:50;100849.16;;;10.69;100.00
63190;BME280;49286;44.460;26.114;2023-05-07T01:09:17;100956.31;;;11.27;100.00
63190;BME280;49286;44.460;26.114;2023-05-07T01:11:45;100849.03;;;10.51;100.00
63190;BME280;49286;44.460;26.114;2023-05-07T01:14:11;100960.59;;;11.11;100.00
63190;BME280;49286;44.460;26.114;2023-05-07T01:16:38;100866.63;;;10.63;100.00
63190;BME280;49286;44.460;26.114;2023-05-07T01:19:04;100858.78;;;10.66;100.00
63190;BME280;49286;44.460;26.114;2023-05-07T01:21:32;100963.34;;;11.33;100.00
63190;BME280;49286;44.460;26.114;2023-05-07T01:23:58;100934.25;;;10.96;100.00
63190;BME280;49286;44.460;26.114;2023-05-07T01:26:24;100942.09;;;10.91;100.00
63190;BME280;49286;44.460;26.114;2023-05-07T01:28:49;100923.66;;;10.85;100.00
63190;BME280;49286;44.460;26.114;2023-05-07T01:31:16;100799.75;;;10.10;100.00
63190;BME280;49286;44.460;26.114;2023-05-07T01:33:44;100794.44;;;10.02;100.00
63190;BME280;49286;44.460;26.114;2023-05-07T01:36:11;100832.09;;;10.13;100.00
63190;BME280;49286;44.460;26.114;2023-05-07T01:38:39;100799.59;;;9.94;100.00
63190;BME280;49286;44.460;26.114;2023-05-07T01:41:04;100828.56;;;10.07;100.00
63190;BME280;49286;44.460;26.114;2023-05-07T01:43:30;100696.00;;;9.33;100.00
63190;BME280;49286;44.460;26.114;2023-05-07T01:45:57;100844.38;;;10.16;100.00
63190;BME280;49286;44.460;26.114;2023-05-07T01:48:24;100919.00;;;10.50;100.00
63190;BME280;49286;44.460;26.114;2023-05-07T01:50:50;100910.16;;;10.39;100.00
63190;BME280;49286;44.460;26.114;2023-05-07T01:53:16;100784.59;;;9.75;100.00
63190;BME280;49286;44.460;26.114;2023-05-07T01:55:42;100926.91;;;10.53;100.00
63190;BME280;49286;44.460;26.114;2023-05-07T01:58:07;100811.78;;;9.89;100.00
63190;BME280;49286;44.460;26.114;2023-05-07T02:00:33;100909.31;;;10.42;100.00
63190;BME280;49286;44.460;26.114;2023-05-07T02:02:58;100906.63;;;10.32;100.00
63190;BME280;49286;44.460;26.114;2023-05-07T02:05:24;100894.28;;;10.24;100.00
63190;BME280;49286;44.460;26.114;2023-05-07T02:07:49;100880.53;;;10.51;100.00
63190;BME280;49286;44.460;26.114;2023-05-07T02:10:15;100905.28;;;10.85;100.00
63190;BME280;49286;44.460;26.114;2023-05-07T02:12:40;100918.28;;;10.68;100.00
63190;BME280;49286;44.460;26.114;2023-05-07T02:15:06;100838.47;;;10.39;100.00
63190;BME280;49286;44.460;26.114;2023-05-07T02:17:31;100777.28;;;9.43;100.00
63190;BME280;49286;44.460;26.114;2023-05-07T02:19:58;100776.25;;;9.29;100.00
63190;BME280;49286;44.460;26.114;2023-05-07T02:22:24;100875.59;;;9.88;100.00
63190;BME280;49286;44.460;26.114;2023-05-07T02:24:49;100753.44;;;9.19;100.00
63190;BME280;49286;44.460;26.114;2023-05-07T02:27:15;100770.06;;;9.21;100.00
63190;BME280;49286;44.460;26.114;2023-05-07T02:29:40;100883.31;;;9.78;100.00
63190;BME280;49286;44.460;26.114;2023-05-07T02:32:06;100869.69;;;10.12;100.00
63190;BME280;49286;44.460;26.114;2023-05-07T02:34:31;100881.34;;;10.42;100.00
63190;BME280;49286;44.460;26.114;2023-05-07T02:36:56;100890.81;;;10.28;100.00
63190;BME280;49286;44.460;26.114;2023-05-07T02:39:22;100898.84;;;10.46;100.00
63190;BME280;49286;44.460;26.114;2023-05-07T02:41:47;100774.53;;;9.31;100.00
63190;BME280;49286;44.460;26.114;2023-05-07T02:44:13;100887.75;;;9.83;100.00
63190;BME280;49286;44.460;26.114;2023-05-07T02:46:38;100817.47;;;9.45;100.00
63190;BME280;49286;44.460;26.114;2023-05-07T02:49:04;100897.44;;;9.92;100.00
63190;BME280;49286;44.460;26.114;2023-05-07T02:51:30;100866.75;;;9.80;100.00
63190;BME280;49286;44.460;26.114;2023-05-07T02:53:55;100848.72;;;10.12;100.00
63190;BME280;49286;44.460;26.114;2023-05-07T02:56:21;100870.59;;;10.18;100.00
63190;BME280;49286;44.460;26.114;2023-05-07T02:58:47;100844.38;;;10.16;100.00
63190;BME280;49286;44.460;26.114;2023-05-07T03:01:12;100885.78;;;10.49;100.00
63190;BME280;49286;44.460;26.114;2023-05-07T03:03:39;100786.31;;;9.76;100.00
63190;BME280;49286;44.460;26.114;2023-05-07T03:06:05;100901.00;;;9.96;100.00
63190;BME280;49286;44.460;26.114;2023-05-07T03:08:32;100759.34;;;9.01;100.00
63190;BME280;49286;44.460;26.114;2023-05-07T03:10:57;100782.84;;;8.96;100.00
63190;BME280;49286;44.460;26.114;2023-05-07T03:13:23;100893.66;;;9.62;100.00
63190;BME280;49286;44.460;26.114;2023-05-07T03:15:48;100868.03;;;9.37;100.00
63190;BME280;49286;44.460;26.114;2023-05-07T03:18:14;100863.72;;;9.42;100.00
63190;BME280;49286;44.460;26.114;2023-05-07T03:20:39;100774.00;;;8.86;100.00
63190;BME280;49286;44.460;26.114;2023-05-07T03:23:05;100901.91;;;10.01;100.00
63190;BME280;49286;44.460;26.114;2023-05-07T03:25:31;100773.00;;;9.51;100.00
63190;BME280;49286;44.460;26.114;2023-05-07T03:27:57;100851.28;;;10.05;100.00
63190;BME280;49286;44.460;26.114;2023-05-07T03:30:22;100776.66;;;9.67;100.00
63190;BME280;49286;44.460;26.114;2023-05-07T03:32:48;100908.19;;;10.18;100.00
63190;BME280;49286;44.460;26.114;2023-05-07T03:35:13;100767.50;;;9.27;100.00
63190;BME280;49286;44.460;26.114;2023-05-07T03:37:39;100892.19;;;9.89;100.00
63190;BME280;49286;44.460;26.114;2023-05-07T03:40:06;100880.53;;;9.64;100.00
63190;BME280;49286;44.460;26.114;2023-05-07T03:42:31;100912.91;;;9.69;100.00
63190;BME280;49286;44.460;26.114;2023-05-07T03:44:57;100924.59;;;9.96;100.00
63190;BME280;49286;44.460;26.114;2023-05-07T03:47:22;100800.59;;;9.22;100.00
63190;BME280;49286;44.460;26.114;2023-05-07T03:49:48;100921.22;;;10.07;100.00
63190;BME280;49286;44.460;26.114;2023-05-07T03:52:14;100916.69;;;9.94;100.00
63190;BME280;49286;44.460;26.114;2023-05-07T03:54:40;100796.59;;;9.55;100.00
63190;BME280;49286;44.460;26.114;2023-05-07T03:57:05;100925.13;;;10.48;100.00
63190;BME280;49286;44.460;26.114;2023-05-07T03:59:31;100910.25;;;10.47;100.00
63190;BME280;49286;44.460;26.114;2023-05-07T04:01:57;100885.59;;;10.29;100.00
63190;BME280;49286;44.460;26.114;2023-05-07T04:04:23;100894.81;;;9.89;100.00
63190;BME280;49286;44.460;26.114;2023-05-07T04:06:48;100815.03;;;9.62;100.00
63190;BME280;49286;44.460;26.114;2023-05-07T04:09:14;100955.59;;;10.33;100.00
63190;BME280;49286;44.460;26.114;2023-05-07T04:11:39;100900.88;;;9.86;100.00
63190;BME280;49286;44.460;26.114;2023-05-07T04:14:05;100965.94;;;10.23;100.00
63190;BME280;49286;44.460;26.114;2023-05-07T04:16:31;100968.69;;;10.30;100.00
63190;BME280;49286;44.460;26.114;2023-05-07T04:18:57;100829.72;;;9.48;100.00
63190;BME280;49286;44.460;26.114;2023-05-07T04:21:22;100960.66;;;10.20;100.00
63190;BME280;49286;44.460;26.114;2023-05-07T04:23:48;100957.22;;;10.24;100.00
63190;BME280;49286;44.460;26.114;2023-05-07T04:26:14;100967.91;;;10.41;100.00
63190;BME280;49286;44.460;26.114;2023-05-07T04:28:40;100983.63;;;10.38;100.00
63190;BME280;49286;44.460;26.114;2023-05-07T04:31:06;100865.88;;;9.80;100.00
63190;BME280;49286;44.460;26.114;2023-05-07T04:33:32;100848.31;;;9.69;100.00
63190;BME280;49286;44.460;26.114;2023-05-07T04:35:58;100968.84;;;10.47;100.00
63190;BME280;49286;44.460;26.114;2023-05-07T04:38:31;100988.19;;;10.60;100.00
63190;BME280;49286;44.460;26.114;2023-05-07T04:40:57;100848.44;;;9.85;100.00
63190;BME280;49286;44.460;26.114;2023-05-07T04:43:23;100904.88;;;10.33;100.00
63190;BME280;49286;44.460;26.114;2023-05-07T04:45:50;100849.56;;;10.10;100.00
63190;BME280;49286;44.460;26.114;2023-05-07T04:48:16;100868.16;;;10.34;100.00
63190;BME280;49286;44.460;26.114;2023-05-07T04:50:44;100986.03;;;11.17;100.00
63190;BME280;49286;44.460;26.114;2023-05-07T04:53:12;100822.69;;;10.32;100.00
63190;BME280;49286;44.460;26.114;2023-05-07T04:55:37;100999.06;;;11.03;100.00
63190;BME280;49286;44.460;26.114;2023-05-07T04:58:03;100869.94;;;10.35;100.00
63190;BME280;49286;44.460;26.114;2023-05-07T05:00:30;100869.03;;;10.33;100.00
63190;BME280;49286;44.460;26.114;2023-05-07T05:02:55;100865.69;;;10.51;100.00
63190;BME280;49286;44.460;26.114;2023-05-07T05:05:21;100961.50;;;11.18;100.00
63190;BME280;49286;44.460;26.114;2023-05-07T05:07:46;100999.38;;;11.51;100.00
63190;BME280;49286;44.460;26.114;2023-05-07T05:10:12;100914.22;;;11.13;100.00
63190;BME280;49286;44.460;26.114;2023-05-07T05:12:37;100966.13;;;11.62;100.00
63190;BME280;49286;44.460;26.114;2023-05-07T05:15:04;100851.34;;;11.59;100.00
63190;BME280;49286;44.460;26.114;2023-05-07T05:17:29;100892.66;;;12.00;100.00
63190;BME280;49286;44.460;26.114;2023-05-07T05:19:55;100996.25;;;13.38;100.00
63190;BME280;49286;44.460;26.114;2023-05-07T05:22:21;101002.16;;;14.12;100.00
63190;BME280;49286;44.460;26.114;2023-05-07T05:24:46;101016.31;;;13.94;100.00
63190;BME280;49286;44.460;26.114;2023-05-07T05:27:12;100910.03;;;13.64;100.00
63190;BME280;49286;44.460;26.114;2023-05-07T05:29:37;101008.59;;;15.02;100.00
63190;BME280;49286;44.460;26.114;2023-05-07T05:32:03;100904.22;;;14.50;100.00
63190;BME280;49286;44.460;26.114;2023-05-07T05:34:28;100989.56;;;15.56;100.00
63190;BME280;49286;44.460;26.114;2023-05-07T05:36:53;100914.25;;;15.10;100.00
63190;BME280;49286;44.460;26.114;2023-05-07T05:39:19;101030.31;;;16.77;92.00
63190;BME280;49286;44.460;26.114;2023-05-07T05:41:44;101010.88;;;16.81;96.21
63190;BME280;49286;44.460;26.114;2023-05-07T05:44:10;100980.84;;;16.78;95.53
63190;BME280;49286;44.460;26.114;2023-05-07T05:46:35;100945.94;;;17.05;95.94
63190;BME280;49286;44.460;26.114;2023-05-07T05:49:01;100897.78;;;17.27;88.15
63190;BME280;49286;44.460;26.114;2023-05-07T05:51:26;100922.00;;;16.00;92.05
63190;BME280;49286;44.460;26.114;2023-05-07T05:53:52;101001.34;;;16.03;95.88
63190;BME280;49286;44.460;26.114;2023-05-07T05:56:17;100922.19;;;16.45;89.13
63190;BME280;49286;44.460;26.114;2023-05-07T05:58:43;100988.75;;;16.22;96.92
63190;BME280;49286;44.460;26.114;2023-05-07T06:01:08;101001.03;;;16.28;100.00
63190;BME280;49286;44.460;26.114;2023-05-07T06:03:34;101004.84;;;17.69;90.33
63190;BME280;49286;44.460;26.114;2023-05-07T06:06:00;101011.50;;;17.92;89.91
63190;BME280;49286;44.460;26.114;2023-05-07T06:08:29;100992.41;;;17.26;81.08
63190;BME280;49286;44.460;26.114;2023-05-07T06:10:55;100939.00;;;16.42;92.65
63190;BME280;49286;44.460;26.114;2023-05-07T06:13:21;100902.53;;;17.97;81.72
63190;BME280;49286;44.460;26.114;2023-05-07T06:15:46;100933.69;;;17.88;83.02
63190;BME280;49286;44.460;26.114;2023-05-07T06:18:12;100972.66;;;17.43;85.36
63190;BME280;49286;44.460;26.114;2023-05-07T06:20:37;100915.53;;;18.09;78.08
63190;BME280;49286;44.460;26.114;2023-05-07T06:23:03;100895.94;;;18.14;76.98
63190;BME280;49286;44.460;26.114;2023-05-07T06:25:28;100999.94;;;18.74;73.11
63190;BME280;49286;44.460;26.114;2023-05-07T06:27:53;100989.50;;;18.65;74.46
63190;BME280;49286;44.460;26.114;2023-05-07T06:30:19;100955.25;;;18.90;70.71
63190;BME280;49286;44.460;26.114;2023-05-07T06:32:45;100864.41;;;19.05;66.00
63190;BME280;49286;44.460;26.114;2023-05-07T06:35:10;100984.13;;;20.02;64.38
63190;BME280;49286;44.460;26.114;2023-05-07T06:37:36;100878.38;;;19.43;65.95
63190;BME280;49286;44.460;26.114;2023-05-07T06:40:05;100956.47;;;19.76;58.48
63190;BME280;49286;44.460;26.114;2023-05-07T06:42:30;100976.25;;;19.97;59.52
63190;BME280;49286;44.460;26.114;2023-05-07T06:44:56;100897.84;;;19.45;57.61
63190;BME280;49286;44.460;26.114;2023-05-07T06:47:21;100881.41;;;19.31;59.72
63190;BME280;49286;44.460;26.114;2023-05-07T06:49:47;100988.69;;;19.97;56.69
63190;BME280;49286;44.460;26.114;2023-05-07T06:52:12;100893.00;;;18.27;55.56
63190;BME280;49286;44.460;26.114;2023-05-07T06:54:38;100876.44;;;18.14;55.61
63190;BME280;49286;44.460;26.114;2023-05-07T06:57:03;100945.75;;;18.42;59.98
63190;BME280;49286;44.460;26.114;2023-05-07T06:59:28;100976.22;;;19.35;61.69
63190;BME280;49286;44.460;26.114;2023-05-07T07:01:54;100971.94;;;18.20;62.12
63190;BME280;49286;44.460;26.114;2023-05-07T07:04:19;100884.84;;;18.33;65.21
63190;BME280;49286;44.460;26.114;2023-05-07T07:06:47;100862.41;;;18.45;58.56
63190;BME280;49286;44.460;26.114;2023-05-07T07:09:12;100886.28;;;18.48;60.28
63190;BME280;49286;44.460;26.114;2023-05-07T07:11:38;100884.91;;;18.31;64.25
63190;BME280;49286;44.460;26.114;2023-05-07T07:14:04;100886.00;;;16.97;64.32
63190;BME280;49286;44.460;26.114;2023-05-07T07:16:30;100998.06;;;17.06;64.66
63190;BME280;49286;44.460;26.114;2023-05-07T07:18:55;100887.94;;;16.87;66.59
63190;BME280;49286;44.460;26.114;2023-05-07T07:21:21;100836.69;;;16.88;73.58
63190;BME280;49286;44.460;26.114;2023-05-07T07:23:46;100993.94;;;18.27;66.72
63190;BME280;49286;44.460;26.114;2023-05-07T07:26:12;100996.31;;;18.39;62.87
63190;BME280;49286;44.460;26.114;2023-05-07T07:28:44;100990.13;;;18.39;71.26
63190;BME280;49286;44.460;26.114;2023-05-07T07:31:10;100907.13;;;17.90;67.41
63190;BME280;49286;44.460;26.114;2023-05-07T07:33:36;100913.41;;;17.86;67.94
63190;BME280;49286;44.460;26.114;2023-05-07T07:36:02;100919.03;;;17.69;64.04
63190;BME280;49286;44.460;26.114;2023-05-07T07:38:27;100888.75;;;17.37;61.37
63190;BME280;49286;44.460;26.114;2023-05-07T07:40:53;100883.31;;;17.43;63.37
63190;BME280;49286;44.460;26.114;2023-05-07T07:43:18;100884.09;;;17.05;61.35
63190;BME280;49286;44.460;26.114;2023-05-07T07:45:44;100987.19;;;17.68;66.45
63190;BME280;49286;44.460;26.114;2023-05-07T07:48:11;100890.22;;;17.52;63.57
63190;BME280;49286;44.460;26.114;2023-05-07T07:50:36;100984.50;;;18.13;62.72
63190;BME280;49286;44.460;26.114;2023-05-07T07:53:02;101001.56;;;17.57;60.72
63190;BME280;49286;44.460;26.114;2023-05-07T07:55:27;100916.25;;;17.32;59.69
63190;BME280;49286;44.460;26.114;2023-05-07T07:57:53;100994.06;;;18.21;60.17
63190;BME280;49286;44.460;26.114;2023-05-07T08:00:18;101011.84;;;17.73;59.27
63190;BME280;49286;44.460;26.114;2023-05-07T08:02:44;100985.66;;;17.57;57.57
63190;BME280;49286;44.460;26.114;2023-05-07T08:05:10;100994.91;;;18.23;58.27
63190;BME280;49286;44.460;26.114;2023-05-07T08:07:35;100877.25;;;17.79;56.38
63190;BME280;49286;44.460;26.114;2023-05-07T08:10:01;100913.81;;;18.45;62.35
63190;BME280;49286;44.460;26.114;2023-05-07T08:12:27;100974.16;;;19.13;68.38
63190;BME280;49286;44.460;26.114;2023-05-07T08:14:53;100949.25;;;19.16;72.84
63190;BME280;49286;44.460;26.114;2023-05-07T08:17:18;100900.75;;;17.97;61.84
63190;BME280;49286;44.460;26.114;2023-05-07T08:19:44;100904.16;;;18.77;67.15
63190;BME280;49286;44.460;26.114;2023-05-07T08:22:10;100948.97;;;19.58;83.97
63190;BME280;49286;44.460;26.114;2023-05-07T08:24:36;100966.59;;;19.93;73.96
63190;BME280;49286;44.460;26.114;2023-05-07T08:27:01;100961.38;;;19.90;63.23
63190;BME280;49286;44.460;26.114;2023-05-07T08:29:27;100944.63;;;19.85;61.15
63190;BME280;49286;44.460;26.114;2023-05-07T08:31:52;100857.72;;;19.53;59.78
63190;BME280;49286;44.460;26.114;2023-05-07T08:34:18;100853.91;;;20.18;61.61
63190;BME280;49286;44.460;26.114;2023-05-07T08:36:43;100919.94;;;20.64;57.51
63190;BME280;49286;44.460;26.114;2023-05-07T08:39:09;100846.88;;;19.29;54.98
63190;BME280;49286;44.460;26.114;2023-05-07T08:41:34;100955.28;;;20.15;53.73
63190;BME280;49286;44.460;26.114;2023-05-07T08:44:02;100853.34;;;20.08;53.93
63190;BME280;49286;44.460;26.114;2023-05-07T08:46:31;100925.25;;;20.66;54.93
63190;BME280;49286;44.460;26.114;2023-05-07T08:48:57;100864.66;;;20.16;50.87
63190;BME280;49286;44.460;26.114;2023-05-07T08:51:23;100815.44;;;20.27;56.72
63190;BME280;49286;44.460;26.114;2023-05-07T08:53:49;100847.69;;;20.72;55.49
63190;BME280;49286;44.460;26.114;2023-05-07T08:56:16;100940.25;;;21.70;54.72
63190;BME280;49286;44.460;26.114;2023-05-07T08:58:45;100913.53;;;21.70;52.93
63190;BME280;49286;44.460;26.114;2023-05-07T09:01:13;100938.03;;;21.08;51.25
63190;BME280;49286;44.460;26.114;2023-05-07T09:03:40;100819.84;;;21.28;52.01
63190;BME280;49286;44.460;26.114;2023-05-07T09:06:06;100928.66;;;22.39;53.55
63190;BME280;49286;44.460;26.114;2023-05-07T09:08:33;100867.59;;;22.28;53.72
63190;BME280;49286;44.460;26.114;2023-05-07T09:10:58;100913.22;;;22.88;53.75
63190;BME280;49286;44.460;26.114;2023-05-07T09:13:24;100817.53;;;22.32;50.42
63190;BME280;49286;44.460;26.114;2023-05-07T09:15:50;100901.13;;;23.21;49.50
63190;BME280;49286;44.460;26.114;2023-05-07T09:18:19;100925.88;;;21.24;47.95
63190;BME280;49286;44.460;26.114;2023-05-07T09:20:44;100917.50;;;22.92;51.66
63190;BME280;49286;44.460;26.114;2023-05-07T09:23:10;100827.19;;;22.97;49.06
63190;BME280;49286;44.460;26.114;2023-05-07T09:25:37;100923.91;;;23.50;49.11
63190;BME280;49286;44.460;26.114;2023-05-07T09:28:04;100831.00;;;23.12;48.04
63190;BME280;49286;44.460;26.114;2023-05-07T09:30:32;100932.28;;;22.14;46.16
63190;BME280;49286;44.460;26.114;2023-05-07T09:32:58;100918.38;;;22.06;49.50
63190;BME280;49286;44.460;26.114;2023-05-07T09:35:24;100828.13;;;21.45;48.16
63190;BME280;49286;44.460;26.114;2023-05-07T09:37:56;100895.34;;;22.89;48.96
63190;BME280;49286;44.460;26.114;2023-05-07T09:40:27;100745.91;;;21.30;49.55
63190;BME280;49286;44.460;26.114;2023-05-07T09:42:53;100900.44;;;23.94;48.35
63190;BME280;49286;44.460;26.114;2023-05-07T09:45:28;100886.75;;;23.82;47.43
63190;BME280;49286;44.460;26.114;2023-05-07T09:47:56;100883.97;;;24.02;46.17
63190;BME280;49286;44.460;26.114;2023-05-07T09:50:26;100886.66;;;23.83;47.04
63190;BME280;49286;44.460;26.114;2023-05-07T09:52:54;100904.34;;;24.42;46.12
63190;BME280;49286;44.460;26.114;2023-05-07T09:55:20;100858.44;;;22.76;46.27
63190;BME280;49286;44.460;26.114;2023-05-07T09:57:48;100885.22;;;23.36;48.36
63190;BME280;49286;44.460;26.114;2023-05-07T10:00:15;100887.47;;;24.40;48.28
63190;BME280;49286;44.460;26.114;2023-05-07T10:02:43;100824.56;;;23.92;49.04
63190;BME280;49286;44.460;26.114;2023-05-07T10:05:14;100875.84;;;23.07;45.25
63190;BME280;49286;44.460;26.114;2023-05-07T10:07:40;100883.41;;;23.18;46.64
63190;BME280;49286;44.460;26.114;2023-05-07T10:10:06;100865.19;;;23.64;46.68
63190;BME280;49286;44.460;26.114;2023-05-07T10:12:32;100777.56;;;23.85;47.41
63190;BME280;49286;44.460;26.114;2023-05-07T10:15:08;100878.19;;;24.82;46.32
63190;BME280;49286;44.460;26.114;2023-05-07T10:17:39;100872.41;;;24.55;45.57
63190;BME280;49286;44.460;26.114;2023-05-07T10:20:06;100871.56;;;23.43;48.21
63190;BME280;49286;44.460;26.114;2023-05-07T10:22:41;100884.34;;;22.54;45.40
63190;BME280;49286;44.460;26.114;2023-05-07T10:27:47;100842.31;;;23.95;47.13
63190;BME280;49286;44.460;26.114;2023-05-07T10:30:48;100850.47;;;23.16;47.15
63190;BME280;49286;44.460;26.114;2023-05-07T10:33:23;100821.69;;;23.40;45.04
63190;BME280;49286;44.460;26.114;2023-05-07T10:35:51;100752.22;;;24.27;46.53
63190;BME280;49286;44.460;26.114;2023-05-07T10:38:20;100855.13;;;23.69;44.63
63190;BME280;49286;44.460;26.114;2023-05-07T10:40:46;100829.72;;;22.39;45.97
63190;BME280;49286;44.460;26.114;2023-05-07T10:43:11;100842.78;;;24.39;47.58
63190;BME280;49286;44.460;26.114;2023-05-07T10:45:37;100855.16;;;24.61;45.67
63190;BME280;49286;44.460;26.114;2023-05-07T10:48:09;100853.94;;;25.01;45.81
63190;BME280;49286;44.460;26.114;2023-05-07T10:50:37;100762.88;;;24.29;46.05
63190;BME280;49286;44.460;26.114;2023-05-07T10:55:40;100817.06;;;24.35;47.16
63190;BME280;49286;44.460;26.114;2023-05-07T11:00:47;100744.47;;;22.52;47.86
63190;BME280;49286;44.460;26.114;2023-05-07T11:03:13;100814.53;;;24.32;45.85
63190;BME280;49286;44.460;26.114;2023-05-07T11:05:40;100731.78;;;24.25;46.48
63190;BME280;49286;44.460;26.114;2023-05-07T11:08:07;100822.97;;;24.25;45.81
63190;BME280;49286;44.460;26.114;2023-05-07T11:13:17;100809.44;;;24.45;44.65
63190;BME280;49286;44.460;26.114;2023-05-07T11:15:47;100728.16;;;24.08;45.01
63190;BME280;49286;44.460;26.114;2023-05-07T11:18:17;100828.06;;;24.83;43.95
63190;BME280;49286;44.460;26.114;2023-05-07T11:20:55;100825.88;;;24.56;45.27
63190;BME280;49286;44.460;26.114;2023-05-07T11:26:09;100821.84;;;23.75;47.90
63190;BME280;49286;44.460;26.114;2023-05-07T11:28:42;100816.63;;;23.72;46.05
63190;BME280;49286;44.460;26.114;2023-05-07T11:31:09;100809.84;;;23.84;47.64
63190;BME280;49286;44.460;26.114;2023-05-07T11:33:35;100825.63;;;22.92;47.12
63190;BME280;49286;44.460;26.114;2023-05-07T11:36:05;100832.16;;;24.01;47.24
63190;BME280;49286;44.460;26.114;2023-05-07T11:38:36;100724.94;;;20.74;48.02
63190;BME280;49286;44.460;26.114;2023-05-07T11:41:02;100644.88;;;22.26;48.73
63190;BME280;49286;44.460;26.114;2023-05-07T11:43:31;100824.22;;;23.81;45.86
63190;BME280;49286;44.460;26.114;2023-05-07T11:46:06;100833.91;;;23.65;46.72
63190;BME280;49286;44.460;26.114;2023-05-07T11:48:32;100823.34;;;23.24;46.93
63190;BME280;49286;44.460;26.114;2023-05-07T11:51:02;100706.13;;;22.72;45.58
63190;BME280;49286;44.460;26.114;2023-05-07T11:53:36;100802.19;;;22.78;47.67
63190;BME280;49286;44.460;26.114;2023-05-07T11:56:09;100713.09;;;22.95;46.24
63190;BME280;49286;44.460;26.114;2023-05-07T11:58:35;100672.44;;;22.87;47.13
63190;BME280;49286;44.460;26.114;2023-05-07T12:01:01;100817.03;;;23.25;48.54
63190;BME280;49286;44.460;26.114;2023-05-07T12:03:27;100809.72;;;22.89;47.63
63190;BME280;49286;44.460;26.114;2023-05-07T12:05:52;100701.81;;;22.49;49.53
63190;BME280;49286;44.460;26.114;2023-05-07T12:08:20;100795.88;;;21.74;46.78
63190;BME280;49286;44.460;26.114;2023-05-07T12:10:48;100778.56;;;22.47;46.97
63190;BME280;49286;44.460;26.114;2023-05-07T12:13:25;100805.88;;;22.55;47.12
63190;BME280;49286;44.460;26.114;2023-05-07T12:15:56;100781.94;;;21.87;47.89
63190;BME280;49286;44.460;26.114;2023-05-07T12:18:22;100722.91;;;22.14;48.64
63190;BME280;49286;44.460;26.114;2023-05-07T12:20:49;100761.91;;;22.81;47.87
63190;BME280;49286;44.460;26.114;2023-05-07T12:23:16;100790.78;;;22.93;47.79
63190;BME280;49286;44.460;26.114;2023-05-07T12:25:42;100783.88;;;22.48;51.85
63190;BME280;49286;44.460;26.114;2023-05-07T12:28:16;100781.56;;;21.97;48.71
63190;BME280;49286;44.460;26.114;2023-05-07T12:30:46;100673.69;;;21.57;49.09
63190;BME280;49286;44.460;26.114;2023-05-07T12:33:13;100779.78;;;21.75;49.63
63190;BME280;49286;44.460;26.114;2023-05-07T12:35:41;100705.00;;;21.75;47.70
63190;BME280;49286;44.460;26.114;2023-05-07T12:38:09;100659.09;;;21.21;49.84
63190;BME280;49286;44.460;26.114;2023-05-07T12:40:49;100680.06;;;21.31;50.93
63190;BME280;49286;44.460;26.114;2023-05-07T12:43:25;100738.81;;;22.39;49.74
63190;BME280;49286;44.460;26.114;2023-05-07T12:45:52;100769.38;;;22.93;48.64
63190;BME280;49286;44.460;26.114;2023-05-07T12:48:19;100657.22;;;22.49;49.07